Data for 04/27/2007

Time Sea-Level Adjusted Pressure Absolute Pressure Temperature Relative Humidity Dew Point   
(mb) (inHg) (mb) (inHg) (C) (F) (%) (C) (F)
00:05 1019 30.09 848 25.04 8.3 47 48 -1.9 28.5
00:10 1019 30.09 848 25.04 8.3 46.9 49 -1.7 28.9
00:15 1019 30.09 848 25.04 8.2 46.7 50 -1.5 29.2
00:20 1019 30.09 849 25.07 8 46.5 50 -1.6 29.1
00:25 1019 30.09 849 25.07 8 46.5 51 -1.5 29.3
00:30 1020 30.12 849 25.07 7.9 46.3 52 -1.3 29.6
00:35 1019 30.09 849 25.07 7.9 46.3 52 -1.4 29.5
00:40 1019 30.09 849 25.07 8 46.4 51 -1.4 29.4
00:45 1019 30.09 849 25.07 8.1 46.6 50 -1.8 28.8
00:50 1019 30.09 849 25.07 8.2 46.7 50 -1.7 29
00:55 1020 30.12 849 25.07 8.2 46.7 51 -1.4 29.4
01:00 1020 30.12 849 25.07 8.1 46.5 52 -1 30.1
01:05 1020 30.12 849 25.07 8 46.3 51 -1.6 29.2
01:10 1020 30.12 849 25.07 8 46.5 51 -1.4 29.5
01:15 1020 30.12 849 25.07 8.1 46.6 52 -1.2 29.8
01:20 1020 30.12 849 25.07 7.9 46.1 52 -1.3 29.6
01:25 1020 30.12 849 25.07 7.9 46.1 51 -1.7 29
01:30 1020 30.12 849 25.07 7.9 46.2 50 -1.8 28.7
01:35 1020 30.12 849 25.07 8 46.3 50 -1.8 28.7
01:40 1020 30.12 849 25.07 8 46.4 50 -1.8 28.8
01:45 1020 30.12 849 25.07 8 46.5 49 -1.9 28.6
01:50 1020 30.12 849 25.07 8 46.3 50 -1.8 28.8
01:55 1020 30.12 849 25.07 7.8 46 51 -1.8 28.8
02:00 1020 30.12 849 25.07 7.7 45.9 50 -2 28.5
02:05 1020 30.12 849 25.07 7.8 46.1 48 -2.5 27.6
02:10 1020 30.12 849 25.07 8 46.4 47 -2.5 27.4
02:15 1020 30.12 849 25.07 8.2 46.7 46 -2.6 27.3
02:20 1020 30.12 849 25.07 8.2 46.8 47 -2.3 27.9
02:25 1020 30.12 849 25.07 8.3 46.9 48 -2.1 28.3
02:30 1020 30.12 849 25.07 8.2 46.8 49 -1.9 28.7
02:35 1020 30.12 849 25.07 8.2 46.7 47 -2.4 27.6
02:40 1020 30.12 849 25.07 8.2 46.8 48 -2.2 28
02:45 1020 30.12 849 25.07 8.2 46.7 47 -2.6 27.4
02:50 1020 30.12 849 25.07 8.2 46.8 46 -2.8 27
02:55 1020 30.12 849 25.07 8.3 46.9 46 -2.6 27.4
03:00 1020 30.12 849 25.07 8.3 46.9 46 -2.8 27
03:05 1020 30.12 849 25.07 8.3 46.9 47 -2.4 27.6
03:10 1020 30.12 849 25.07 8.2 46.8 47 -2.5 27.4
03:15 1020 30.12 849 25.07 8.2 46.8 45 -2.9 26.8
03:20 1020 30.12 849 25.07 8.3 47 46 -2.7 27.1
03:25 1020 30.12 849 25.07 8.4 47.1 44 -3.2 26.3
03:30 1020 30.12 849 25.07 8.4 47.1 45 -2.8 27
03:35 1020 30.12 849 25.07 7.6 45.6 54 -1.2 29.9
03:40 1020 30.12 849 25.07 6.5 43.8 60 -0.7 30.7
03:45 1020 30.12 849 25.07 6.1 42.9 59 -1.2 29.8
03:50 1020 30.12 849 25.07 6.1 43 59 -1.3 29.7
03:55 1020 30.12 849 25.07 6 42.9 60 -1 30.2
04:00 1020 30.12 849 25.07 5.9 42.7 61 -0.9 30.3
04:05 1020 30.12 849 25.07 5.9 42.7 61 -0.9 30.3
04:10 1020 30.12 849 25.07 5.8 42.4 62 -0.9 30.3
04:15 1020 30.12 849 25.07 5.6 42.1 63 -0.9 30.5
04:20 1020 30.12 849 25.07 5.4 41.6 64 -0.9 30.4
04:25 1020 30.12 849 25.07 5.2 41.4 64 -1 30.2
04:30 1020 30.12 850 25.1 4.9 40.9 66 -0.9 30.3
04:35 1020 30.12 850 25.1 4.7 40.5 66 -1 30.1
04:40 1020 30.12 850 25.1 4.6 40.2 67 -1 30.2
04:45 1020 30.12 850 25.1 4.8 40.6 67 -0.9 30.3
04:50 1020 30.12 850 25.1 4.5 40.1 68 -0.8 30.6
04:55 1020 30.12 850 25.1 4.3 39.7 69 -0.9 30.3
05:00 1020 30.12 850 25.1 4.3 39.7 69 -0.8 30.5
05:05 1020 30.12 850 25.1 4.1 39.4 68 -1.2 29.8
05:10 1020 30.12 850 25.1 4.6 40.4 62 -2 28.4
05:15 1020 30.12 850 25.1 5.1 41.1 60 -2.1 28.3
05:20 1020 30.12 850 25.1 5.2 41.4 61 -1.8 28.8
05:25 1020 30.12 850 25.1 5 41.1 60 -2.1 28.3
05:30 1021 30.15 850 25.1 5.3 41.5 59 -2.1 28.2
05:35 1021 30.15 850 25.1 5.2 41.4 58 -2.3 27.9
05:40 1021 30.15 850 25.1 5.3 41.5 57 -2.4 27.6
05:45 1021 30.15 850 25.1 5.3 41.5 59 -2.1 28.3
05:50 1021 30.15 850 25.1 5.4 41.7 61 -1.5 29.3
05:55 1020 30.12 850 25.1 5.1 41.2 63 -1.4 29.4
06:00 1021 30.15 850 25.1 4.8 40.6 63 -1.7 29
06:05 1021 30.15 850 25.1 4.5 40.2 65 -1.5 29.3
06:10 1021 30.15 850 25.1 4.2 39.6 66 -1.5 29.2
06:15 1021 30.15 850 25.1 4.3 39.7 66 -1.6 29.2
06:20 1021 30.15 850 25.1 4.4 39.9 66 -1.5 29.3
06:25 1021 30.15 850 25.1 4.2 39.5 63 -2.3 27.9
06:30 1021 30.15 850 25.1 4.6 40.2 62 -2.2 28.1
06:35 1021 30.15 850 25.1 4.7 40.5 60 -2.3 27.8
06:40 1021 30.15 850 25.1 4.8 40.7 61 -2.1 28.3
06:45 1021 30.15 850 25.1 4.7 40.5 62 -2 28.4
06:50 1021 30.15 850 25.1 4.7 40.4 63 -1.7 28.9
06:55 1021 30.15 850 25.1 4.6 40.4 64 -1.6 29
07:00 1021 30.15 850 25.1 4.8 40.6 64 -1.4 29.5
07:05 1021 30.15 850 25.1 4.9 40.9 64 -1.4 29.6
07:10 1021 30.15 850 25.1 5.1 41.2 63 -1.3 29.7
07:15 1021 30.15 850 25.1 5.4 41.7 62 -1.2 29.9
07:20 1021 30.15 850 25.1 5.7 42.3 61 -1.2 29.9
07:25 1021 30.15 850 25.1 6 42.7 60 -1.2 29.9
07:30 1021 30.15 850 25.1 6.3 43.3 60 -1 30.3
07:35 1021 30.15 850 25.1 6.5 43.7 59 -0.8 30.5
07:40 1021 30.15 851 25.13 6.6 44 58 -1.1 30.1
07:45 1021 30.15 851 25.13 6.7 44.1 58 -1 30.2
07:50 1021 30.15 851 25.13 7 44.6 55 -1.3 29.6
07:55 1021 30.15 851 25.13 7.2 45 54 -1.4 29.5
08:00 1022 30.18 851 25.13 7.9 46.2 51 -1.6 29.1
08:05 1022 30.18 851 25.13 9 48.2 50 -1 30.3
08:10 1022 30.18 851 25.13 9.8 49.6 46 -1.2 29.8
08:15 1022 30.18 851 25.13 10.2 50.4 46 -0.8 30.6
08:20 1022 30.18 851 25.13 10.1 50.3 47 -0.7 30.8
08:25 1022 30.18 851 25.13 10.4 50.6 45 -1 30.2
08:30 1022 30.18 851 25.13 10.8 51.4 41 -2 28.5
08:35 1022 30.18 851 25.13 11.2 52.2 41 -1.4 29.5
08:40 1022 30.18 851 25.13 11.1 51.9 43 -1 30.3
08:45 1022 30.18 851 25.13 12 53.6 41 -0.8 30.5
08:50 1022 30.18 851 25.13 12.5 54.5 39 -0.9 30.4
08:55 1022 30.18 851 25.13 12.2 53.9 40 -1.1 30.1
09:00 1022 30.18 851 25.13 12 53.6 38 -2 28.5
09:05 1022 30.18 851 25.13 12 53.6 37 -2 28.3
09:10 1022 30.18 851 25.13 12.2 54 37 -1.9 28.6
09:15 1022 30.18 851 25.13 12.1 53.7 35 -2.8 27
09:20 1022 30.18 851 25.13 12 53.6 35 -2.9 26.8
09:25 1022 30.18 851 25.13 12.7 54.9 33 -3 26.6
09:30 1022 30.18 851 25.13 13 55.3 33 -2.8 27
09:35 1022 30.18 851 25.13 12.6 54.6 34 -3 26.7
09:40 1022 30.18 852 25.16 13.1 55.5 33 -2.9 26.8
09:45 1022 30.18 851 25.13 13.7 56.7 32 -2.7 27.1
09:50 1022 30.18 852 25.16 13.9 57 32 -2.5 27.5
09:55 1022 30.18 852 25.16 13.6 56.4 32 -2.8 26.9
10:00 1022 30.18 852 25.16 14 57.3 31 -2.6 27.3
10:05 1022 30.18 852 25.16 14.2 57.5 31 -2.4 27.6
10:10 1022 30.18 852 25.16 14.2 57.6 32 -2.2 28
10:15 1022 30.18 852 25.16 14.8 58.6 31 -2 28.5
10:20 1022 30.18 851 25.13 14.2 57.5 32 -2.2 28
10:25 1022 30.18 851 25.13 14.5 58.1 32 -1.9 28.6
10:30 1022 30.18 851 25.13 15 58.9 31 -2 28.5
10:35 1022 30.18 851 25.13 15 59 32 -1.6 29
10:40 1022 30.18 851 25.13 14.8 58.6 31 -2 28.4
10:45 1022 30.18 851 25.13 14.1 57.4 33 -1.9 28.6
10:50 1022 30.18 851 25.13 14.1 57.3 33 -2.1 28.3
10:55 1022 30.18 851 25.13 14.3 57.7 32 -2.1 28.2
11:00 1022 30.18 851 25.13 15.1 59.2 32 -1.3 29.6
11:05 1022 30.18 851 25.13 14.3 57.7 32 -1.9 28.5
11:10 1022 30.18 851 25.13 13.7 56.7 34 -1.7 29
11:15 1022 30.18 851 25.13 14.4 58 32 -2 28.4
11:20 1022 30.18 851 25.13 15.7 60.2 31 -1.4 29.6
11:25 1022 30.18 851 25.13 15.4 59.8 31 -1.3 29.7
11:30 1022 30.18 851 25.13 15.6 60 32 -1.1 30.1
11:35 1022 30.18 851 25.13 15.9 60.6 31 -0.9 30.3
11:40 1022 30.18 851 25.13 15.8 60.4 31 -1.4 29.4
11:45 1022 30.18 851 25.13 16.2 61.2 30 -1.2 29.8
11:50 1022 30.18 851 25.13 16.5 61.7 30 -1 30.2
11:55 1022 30.18 851 25.13 16.9 62.5 28 -1.4 29.4
12:00 1022 30.18 851 25.13 16.7 62 29 -1.2 29.9
12:05 1022 30.18 851 25.13 16.8 62.3 29 -1.1 30.1
12:10 1022 30.18 851 25.13 17.1 62.8 30 -0.4 31.2
12:15 1022 30.18 851 25.13 17 62.7 28 -1.3 29.7
12:20 1022 30.18 851 25.13 17.2 62.9 30 -0.5 31
12:25 1022 30.18 851 25.13 16.4 61.5 32 -0.4 31.3
12:30 1022 30.18 851 25.13 16.3 61.3 30 -1 30.1
12:35 1022 30.18 851 25.13 16.4 61.5 32 -0.4 31.2
12:40 1022 30.18 851 25.13 16.5 61.6 31 -0.8 30.6
12:45 1022 30.18 851 25.13 15.7 60.3 33 -0.4 31.3
12:50 1022 30.18 851 25.13 15.5 59.9 32 -1.2 29.9
12:55 1022 30.18 851 25.13 15.8 60.5 32 -0.8 30.5
13:00 1022 30.18 851 25.13 16.1 61.1 32 -0.5 31.1
13:05 1022 30.18 851 25.13 16.1 60.9 30 -1.4 29.4
13:10 1022 30.18 851 25.13 16.3 61.4 30 -1.3 29.7
13:15 1021 30.15 851 25.13 17.2 62.9 29 -1 30.2
13:20 1021 30.15 851 25.13 16.6 61.9 31 -0.7 30.8
13:25 1021 30.15 851 25.13 16.1 60.9 30 -1.3 29.6
13:30 1021 30.15 851 25.13 16.6 62 31 -0.3 31.5
13:35 1021 30.15 851 25.13 17.3 63.1 28 -1.4 29.6
13:40 1021 30.15 850 25.1 17.9 64.1 28 -0.6 30.9
13:45 1021 30.15 850 25.1 18 64.4 28 -0.7 30.7
13:50 1021 30.15 850 25.1 18.2 64.8 28 -0.4 31.2
13:55 1021 30.15 850 25.1 17.9 64.3 28 -0.8 30.6
14:00 1021 30.15 850 25.1 17.8 64 27 -1.2 29.9
14:05 1021 30.15 850 25.1 17.5 63.5 29 -0.7 30.7
14:10 1021 30.15 850 25.1 17.3 63.1 28 -1.5 29.3
14:15 1021 30.15 850 25.1 17.6 63.6 28 -1.2 29.8
14:20 1021 30.15 850 25.1 18 64.4 27 -1.1 30
14:25 1021 30.15 850 25.1 18 64.5 27 -1 30.3
14:30 1021 30.15 850 25.1 17.9 64.2 27 -1 30.2
14:35 1021 30.15 850 25.1 18.4 65.1 28 -0.5 31
14:40 1021 30.15 850 25.1 18.3 65 27 -0.7 30.8
14:45 1021 30.15 850 25.1 17.9 64.2 29 -0.4 31.2
14:50 1021 30.15 850 25.1 17.5 63.4 29 -0.7 30.8
14:55 1021 30.15 850 25.1 17.5 63.4 29 -0.5 31.2
15:00 1021 30.15 850 25.1 18 64.4 28 -0.6 30.9
15:05 1021 30.15 850 25.1 18.4 65.2 28 -0.2 31.7
15:10 1021 30.15 850 25.1 18.2 64.8 28 -0.4 31.3
15:15 1021 30.15 850 25.1 17.6 63.8 30 0.1 32.2
15:20 1020 30.12 850 25.1 17.4 63.3 31 0.3 32.5
15:25 1020 30.12 850 25.1 17.3 63.2 29 -0.6 31
15:30 1020 30.12 850 25.1 16.7 62 31 -0.5 31.1
15:35 1020 30.12 850 25.1 16.1 60.9 32 -0.6 31
15:40 1020 30.12 850 25.1 16.2 61.1 32 -0.3 31.5
15:45 1020 30.12 850 25.1 17 62.6 30 -0.4 31.2
15:50 1020 30.12 850 25.1 17.7 63.8 30 -0.1 31.9
15:55 1020 30.12 850 25.1 17.1 62.8 30 -0.5 31.1
16:00 1021 30.15 850 25.1 16.6 61.8 32 -0.2 31.7
16:05 1020 30.12 850 25.1 17.1 62.8 30 -0.3 31.4
16:10 1020 30.12 850 25.1 16.4 61.5 32 -0.2 31.7
16:15 1020 30.12 850 25.1 16.2 61.1 32 -0.3 31.5
16:20 1020 30.12 850 25.1 16.1 61 32 -0.7 30.8
16:25 1020 30.12 850 25.1 16.6 61.8 31 -0.5 31.2
16:30 1020 30.12 850 25.1 16.8 62.2 32 0.1 32.2
16:35 1020 30.12 850 25.1 17.1 62.8 30 -0.3 31.5
16:40 1020 30.12 850 25.1 17.2 62.9 30 -0.3 31.5
16:45 1020 30.12 850 25.1 17.3 63.1 30 -0.2 31.7
16:50 1020 30.12 850 25.1 16.4 61.6 32 -0.1 31.8
16:55 1020 30.12 850 25.1 16.8 62.2 31 -0.2 31.7
17:00 1020 30.12 850 25.1 17.5 63.5 30 -0.2 31.6
17:05 1020 30.12 850 25.1 18.4 65.2 28 -0.2 31.6
17:10 1020 30.12 849 25.07 19 66.3 27 -0 32
17:15 1020 30.12 849 25.07 19 66.1 28 -0 32
17:20 1020 30.12 849 25.07 19.3 66.8 27 -0.2 31.7
17:25 1020 30.12 849 25.07 19.9 67.7 25 -0.3 31.4
17:30 1020 30.12 849 25.07 19.4 66.8 27 -0.1 31.9
17:35 1020 30.12 849 25.07 19.1 66.3 27 -0.1 31.8
17:40 1020 30.12 849 25.07 19.5 67 26 -0.2 31.7
17:45 1020 30.12 849 25.07 19.5 67.2 27 0.2 32.3
17:50 1020 30.12 849 25.07 18.6 65.4 28 0.1 32.1
17:55 1020 30.12 849 25.07 18.1 64.5 30 0.1 32.3
18:00 1020 30.12 849 25.07 18.2 64.7 29 0.1 32.2
18:05 1020 30.12 849 25.07 18.1 64.6 29 -0.1 31.8
18:10 1020 30.12 849 25.07 18.4 65.1 29 0.1 32.2
18:15 1020 30.12 849 25.07 18.2 64.8 29 0.1 32.2
18:20 1020 30.12 849 25.07 18.7 65.6 29 0.3 32.6
18:25 1020 30.12 849 25.07 18.7 65.7 28 0 32.1
18:30 1020 30.12 849 25.07 18.9 66 28 0.2 32.4
18:35 1020 30.12 849 25.07 19 66.1 28 0.4 32.7
18:40 1020 30.12 849 25.07 19.2 66.5 28 0.4 32.7
18:45 1020 30.12 849 25.07 19.1 66.3 29 0.6 33.1
18:50 1020 30.12 849 25.07 18.3 64.9 30 0.5 32.9
18:55 1020 30.12 849 25.07 18.1 64.5 30 0.5 32.9
19:00 1020 30.12 849 25.07 18 64.4 31 0.6 33.1
19:05 1020 30.12 849 25.07 17.8 64 31 0.7 33.3
19:10 1020 30.12 849 25.07 17.8 64 31 0.5 32.9
19:15 1020 30.12 849 25.07 17.6 63.7 33 1.1 34
19:20 1020 30.12 849 25.07 17.6 63.7 31 0.5 33
19:25 1020 30.12 849 25.07 17.6 63.6 33 1.2 34.1
19:30 1020 30.12 849 25.07 17.3 63.2 33 1 33.7
19:35 1020 30.12 849 25.07 17.3 63.1 32 0.6 33.1
19:40 1020 30.12 849 25.07 17.2 63 33 1.1 34
19:45 1020 30.12 849 25.07 17.1 62.7 34 1.1 34
19:50 1020 30.12 849 25.07 16.8 62.3 35 1.5 34.6
19:55 1020 30.12 849 25.07 16.8 62.3 35 1.2 34.2
20:00 1020 30.12 849 25.07 16.7 62.1 35 1.4 34.5
20:05 1020 30.12 849 25.07 16.6 61.9 35 1.4 34.4
20:10 1020 30.12 849 25.07 16.5 61.7 36 1.3 34.4
20:15 1020 30.12 849 25.07 16.5 61.7 37 2 35.5
20:20 1020 30.12 849 25.07 16.5 61.8 36 1.7 35
20:25 1020 30.12 849 25.07 16.5 61.8 36 1.4 34.5
20:30 1020 30.12 849 25.07 16.4 61.5 38 2.1 35.8
20:35 1020 30.12 849 25.07 16 60.9 42 3.1 37.5
20:40 1020 30.12 849 25.07 15 59 45 3.3 38
20:45 1020 30.12 850 25.1 14.3 57.7 49 3.8 38.9
20:50 1020 30.12 850 25.1 13.9 57.1 50 3.9 38.9
20:55 1020 30.12 850 25.1 13.4 56.1 52 3.7 38.7
21:00 1020 30.12 850 25.1 13 55.4 52 3.5 38.3
21:05 1021 30.15 850 25.1 12.7 54.8 53 3.5 38.3
21:10 1021 30.15 850 25.1 12.4 54.4 53 3.3 37.9
21:15 1021 30.15 850 25.1 12.5 54.4 52 3 37.3
21:20 1021 30.15 850 25.1 12.4 54.3 52 2.8 37.1
21:25 1021 30.15 850 25.1 12.3 54.1 52 2.8 37
21:30 1021 30.15 850 25.1 12.3 54.1 51 2.5 36.6
21:35 1021 30.15 850 25.1 12.2 53.9 52 2.7 36.8
21:40 1021 30.15 850 25.1 12 53.5 54 2.9 37.2
21:45 1021 30.15 850 25.1 11.7 53 54 2.7 36.8
21:50 1021 30.15 850 25.1 11.5 52.6 54 2.5 36.5
21:55 1021 30.15 850 25.1 11.6 52.8 51 2 35.5
22:00 1021 30.15 850 25.1 11.6 52.9 51 1.9 35.4
22:05 1021 30.15 850 25.1 11.6 52.9 51 1.9 35.5
22:10 1021 30.15 850 25.1 11.6 52.9 51 1.9 35.4
22:15 1021 30.15 850 25.1 11.5 52.8 51 1.9 35.4
22:20 1021 30.15 850 25.1 11.4 52.5 54 2.4 36.3
22:25 1021 30.15 850 25.1 11.3 52.4 53 2.1 35.7
22:30 1021 30.15 850 25.1 11 51.9 52 1.5 34.7
22:35 1021 30.15 850 25.1 11.3 52.3 51 1.5 34.7
22:40 1021 30.15 850 25.1 11.3 52.3 51 1.5 34.8
22:45 1021 30.15 850 25.1 11.2 52.1 50 1.1 34
22:50 1021 30.15 850 25.1 11.3 52.4 49 1.1 33.9
22:55 1021 30.15 850 25.1 11.4 52.6 47 0.6 33.1
23:00 1021 30.15 850 25.1 11.5 52.7 49 1.1 34
23:05 1021 30.15 850 25.1 11 51.8 52 1.5 34.7
23:10 1021 30.15 850 25.1 10.5 51 53 1.4 34.5
23:15 1021 30.15 850 25.1 10.3 50.5 54 1.3 34.4
23:20 1021 30.15 850 25.1 10.3 50.6 53 1.3 34.3
23:25 1021 30.15 850 25.1 10.3 50.5 54 1.5 34.7
23:30 1021 30.15 850 25.1 10 50.1 54 1.3 34.3
23:35 1021 30.15 850 25.1 10.1 50.1 52 0.8 33.5
23:40 1021 30.15 850 25.1 10.4 50.6 51 0.6 33.1
23:45 1021 30.15 850 25.1 10.3 50.5 52 0.8 33.4
23:50 1021 30.15 850 25.1 10.2 50.4 51 0.6 33.1
23:55 1021 30.15 850 25.1 10.1 50.1 52 0.7 33.3
24:00 1021 30.15 850 25.1 9.9 49.7 52 0.5 32.9